Time;durP1;ratioP1;P1;durP2;ratioP2;P2;SDS_P1;SDS_P2;PMS_P1;PMS_P2;Temp;Humidity;BMP_temperature;BMP_pressure;BME280_temperature;BME280_humidity;BME280_pressure;Samples;Min_cycle;Max_cycle;Signal;HPM_P1;HPM_P2
2022/05/31 00:01:06;;;;;;;;;3.00;3.00;;;;;15.44;40.94;100374.94;4998842;28;45437;-80
2022/05/31 00:03:31;;;;;;;;;3.00;2.25;;;;;15.40;41.05;100362.66;4997382;28;45376;-77
2022/05/31 00:05:57;;;;;;;;;4.00;2.00;;;;;15.42;41.08;100366.13;5013639;28;45502;-75
2022/05/31 00:08:22;;;;;;;;;3.00;3.00;;;;;15.40;41.37;100365.34;5015462;28;55354;-77
2022/05/31 00:10:47;;;;;;;;;5.50;3.50;;;;;15.38;41.94;100361.88;5015099;28;45478;-75
2022/05/31 00:13:13;;;;;;;;;4.75;4.75;;;;;15.41;41.47;100377.72;5015562;28;45320;-77
2022/05/31 00:15:38;;;;;;;;;4.50;4.50;;;;;15.39;41.51;100371.56;5015889;28;45491;-77
2022/05/31 00:18:04;;;;;;;;;2.75;2.00;;;;;15.35;41.24;100370.00;5016201;28;46088;-76
2022/05/31 00:20:29;;;;;;;;;4.75;4.00;;;;;15.33;41.47;100371.84;5015318;28;45454;-77
2022/05/31 00:22:55;;;;;;;;;3.00;3.00;;;;;15.23;41.64;100365.22;5013125;28;45432;-77
2022/05/31 00:25:21;;;;;;;;;2.50;2.50;;;;;15.19;41.49;100358.28;5012817;28;45697;-76
2022/05/31 00:27:46;;;;;;;;;2.00;2.00;;;;;15.12;42.09;100362.13;4997478;28;45418;-76
2022/05/31 00:30:13;;;;;;;;;3.00;3.00;;;;;15.13;41.93;100356.72;4996230;28;45460;-76
2022/05/31 00:32:42;;;;;;;;;2.75;2.00;;;;;15.14;42.09;100353.16;5022552;28;45490;-77
2022/05/31 00:35:26;;;;;;;;;3.00;3.00;;;;;15.12;42.34;100362.97;5036550;28;45493;-76
2022/05/31 00:37:54;;;;;;;;;2.00;2.00;;;;;15.12;42.33;100367.44;5025880;28;45418;-76
2022/05/31 00:40:21;;;;;;;;;3.00;3.00;;;;;15.06;41.97;100364.13;5016232;28;45430;-77
2022/05/31 00:42:57;;;;;;;;;0.75;0.75;;;;;15.14;42.55;100377.09;4997198;28;45495;-76
2022/05/31 00:45:43;;;;;;;;;3.00;2.00;;;;;15.12;42.36;100378.09;4996345;28;45493;-77
2022/05/31 00:48:13;;;;;;;;;2.00;2.00;;;;;15.13;42.81;100369.19;4996294;28;46107;-76
2022/05/31 00:50:50;;;;;;;;;3.00;2.00;;;;;15.12;42.71;100375.44;4998627;28;45610;-76
2022/05/31 00:53:20;;;;;;;;;3.00;3.00;;;;;15.10;42.43;100375.50;5021645;28;45676;-77
2022/05/31 00:55:50;;;;;;;;;1.00;1.00;;;;;15.00;42.78;100353.72;5017982;28;45465;-77
2022/05/31 00:58:27;;;;;;;;;1.25;1.25;;;;;15.01;42.77;100360.75;5016376;28;45442;-77
2022/05/31 01:01:02;;;;;;;;;2.00;2.00;;;;;15.06;42.42;100364.13;5009725;28;45517;-78
2022/05/31 01:03:28;;;;;;;;;1.00;1.00;;;;;14.98;42.75;100360.03;4996087;28;45472;-77
2022/05/31 01:05:54;;;;;;;;;2.75;2.00;;;;;15.02;43.03;100357.19;4995497;28;45510;-76
2022/05/31 01:08:19;;;;;;;;;3.00;3.00;;;;;15.02;42.88;100362.50;5012593;28;46297;-76
2022/05/31 01:10:46;;;;;;;;;2.00;2.00;;;;;14.93;43.22;100353.09;5014648;28;45390;-77
2022/05/31 01:13:16;;;;;;;;;2.00;2.00;;;;;14.99;42.49;100354.66;5015955;28;45493;-77
2022/05/31 01:15:44;;;;;;;;;3.00;1.00;;;;;14.98;42.58;100354.72;4999123;28;45523;-76
2022/05/31 01:18:10;;;;;;;;;1.00;1.00;;;;;14.96;42.69;100357.44;4995881;28;45510;-77
2022/05/31 01:20:35;;;;;;;;;2.50;2.50;;;;;14.91;42.80;100359.44;5006025;28;45427;-76
2022/05/31 01:23:09;;;;;;;;;2.00;2.00;;;;;14.94;42.61;100356.66;5009588;28;45948;-76
2022/05/31 01:25:43;;;;;;;;;4.00;3.00;;;;;14.96;42.95;100359.25;5017281;28;45606;-77
2022/05/31 01:28:28;;;;;;;;;4.00;4.00;;;;;14.95;42.55;100355.69;5015756;28;46295;-75
2022/05/31 01:31:15;;;;;;;;;3.25;2.00;;;;;14.95;42.78;100355.69;5005986;28;45446;-77
2022/05/31 01:33:50;;;;;;;;;0.25;0.25;;;;;14.93;42.81;100350.44;5004503;28;45448;-77
2022/05/31 01:36:21;;;;;;;;;2.75;2.25;;;;;14.93;43.05;100355.75;5014149;28;45344;-77
2022/05/31 01:39:03;;;;;;;;;2.50;2.25;;;;;14.91;42.78;100340.81;5015113;28;45491;-76
2022/05/31 01:41:37;;;;;;;;;4.00;4.00;;;;;14.92;42.76;100339.88;5014339;28;45453;-76
2022/05/31 01:44:07;;;;;;;;;3.25;2.75;;;;;14.95;43.46;100353.03;5015200;28;45377;-76
2022/05/31 01:46:34;;;;;;;;;1.00;1.00;;;;;14.89;43.44;100348.88;5001962;28;45542;-75
2022/05/31 01:49:06;;;;;;;;;2.00;2.00;;;;;14.91;43.00;100348.78;4994916;28;46244;-77
2022/05/31 01:51:32;;;;;;;;;2.00;2.00;;;;;14.89;43.01;100347.97;5002604;28;45412;-77
2022/05/31 01:53:58;;;;;;;;;2.00;2.00;;;;;14.87;42.91;100348.03;4997142;28;45448;-77
2022/05/31 01:56:23;;;;;;;;;3.00;2.00;;;;;14.91;43.03;100354.13;5004295;28;45399;-77
2022/05/31 01:58:52;;;;;;;;;2.75;2.75;;;;;14.90;43.00;100355.88;5014765;28;46151;-76
2022/05/31 02:01:17;;;;;;;;;3.50;2.25;;;;;14.89;42.55;100351.53;5011621;28;45380;-75
2022/05/31 02:03:44;;;;;;;;;2.00;2.00;;;;;14.93;42.63;100360.22;5015887;28;45730;-77
2022/05/31 02:06:28;;;;;;;;;1.50;1.50;;;;;14.91;42.40;100356.78;5005676;28;45553;-78
2022/05/31 02:08:54;;;;;;;;;3.75;1.50;;;;;14.93;42.70;100360.22;4994843;28;46998;-77
2022/05/31 02:11:20;;;;;;;;;2.00;2.00;;;;;14.92;42.73;100363.81;4995193;28;45636;-77
2022/05/31 02:13:45;;;;;;;;;1.50;1.50;;;;;14.96;42.70;100367.22;4995079;28;45434;-77
2022/05/31 02:16:11;;;;;;;;;2.75;1.00;;;;;14.96;43.15;100361.91;4993311;28;45514;-76
2022/05/31 02:21:20;;;;;;;;;4.00;3.00;;;;;14.91;42.52;100351.47;5014356;28;45332;-76
2022/05/31 02:23:46;;;;;;;;;1.50;1.50;;;;;14.94;42.26;100364.63;5016547;28;45351;-78
2022/05/31 02:26:11;;;;;;;;;3.00;3.00;;;;;14.95;42.76;100360.16;5013264;28;45585;-76
2022/05/31 02:28:36;;;;;;;;;2.00;2.00;;;;;14.90;42.89;100353.22;5014244;28;45934;-77
2022/05/31 02:31:02;;;;;;;;;3.00;3.00;;;;;14.95;42.06;100361.03;4998873;28;45445;-76
2022/05/31 02:33:27;;;;;;;;;2.75;2.75;;;;;14.90;42.74;100347.06;5008579;28;45459;-77
2022/05/31 02:35:52;;;;;;;;;2.75;1.75;;;;;14.98;42.83;100368.88;5021965;28;45353;-77
2022/05/31 02:38:18;;;;;;;;;1.00;1.00;;;;;14.99;42.82;100361.78;5037620;28;51042;-77
2022/05/31 02:40:43;;;;;;;;;3.75;3.75;;;;;14.97;42.74;100356.53;5015006;28;47310;-76
2022/05/31 02:43:09;;;;;;;;;2.00;2.00;;;;;14.98;42.86;100365.38;5015899;28;45447;-76
2022/05/31 02:45:34;;;;;;;;;1.00;1.00;;;;;14.97;42.94;100367.16;5015231;28;45396;-77
2022/05/31 02:48:00;;;;;;;;;1.75;1.75;;;;;14.93;42.88;100362.88;4998229;28;46145;-75
2022/05/31 02:50:25;;;;;;;;;3.00;2.00;;;;;14.96;42.65;100361.91;5016387;28;45502;-77
2022/05/31 02:52:51;;;;;;;;;1.00;1.00;;;;;14.95;42.09;100360.16;5027081;28;45339;-75
2022/05/31 02:55:16;;;;;;;;;1.00;1.00;;;;;14.96;42.96;100362.75;5018450;28;45386;-78
2022/05/31 02:57:42;;;;;;;;;1.75;1.75;;;;;14.95;43.40;100354.84;5002507;28;46193;-79
2022/05/31 03:00:08;;;;;;;;;2.00;2.00;;;;;14.92;42.79;100356.72;4999342;28;45428;-79
2022/05/31 03:02:35;;;;;;;;;2.00;2.00;;;;;14.92;43.00;100353.16;4998763;28;45304;-80
2022/05/31 03:05:01;;;;;;;;;2.25;2.25;;;;;14.93;42.91;100346.94;4998596;28;45502;-78
2022/05/31 03:07:26;;;;;;;;;3.00;3.00;;;;;14.89;42.70;100329.34;5010676;28;45422;-79
2022/05/31 03:09:52;;;;;;;;;3.00;2.00;;;;;14.87;43.24;100337.41;4998715;28;45417;-80
2022/05/31 03:12:19;;;;;;;;;2.00;2.00;;;;;14.93;42.92;100346.94;4997619;28;45467;-79
2022/05/31 03:15:16;;;;;;;;;2.00;2.00;;;;;14.91;43.28;100354.97;4998850;28;45396;-79
2022/05/31 03:17:53;;;;;;;;;3.00;2.00;;;;;14.92;43.23;100361.16;4976303;28;46233;-79
2022/05/31 03:20:26;;;;;;;;;3.00;2.00;;;;;14.91;43.00;100365.63;4987736;28;45432;-79
2022/05/31 03:23:15;;;;;;;;;2.00;2.00;;;;;14.91;43.33;100354.13;5009973;28;45429;-78
2022/05/31 03:25:42;;;;;;;;;1.50;1.50;;;;;14.89;42.99;100361.28;5009381;28;45331;-79
2022/05/31 03:28:09;;;;;;;;;4.00;4.00;;;;;14.89;42.52;100355.97;4960482;28;46105;-80
2022/05/31 03:30:37;;;;;;;;;3.75;2.75;;;;;14.86;42.83;100351.63;4960788;28;45471;-79
2022/05/31 03:33:04;;;;;;;;;2.00;2.00;;;;;14.87;43.22;100348.03;4976898;28;45560;-80
2022/05/31 03:35:29;;;;;;;;;1.00;1.00;;;;;14.87;42.66;100352.50;4976805;28;45393;-80
2022/05/31 03:37:55;;;;;;;;;2.50;2.00;;;;;14.86;42.69;100353.44;4995199;28;47816;-78
2022/05/31 03:43:05;;;;;;;;;4.00;3.00;;;;;14.84;43.29;100347.31;5013814;28;45459;-79
2022/05/31 03:45:35;;;;;;;;;2.25;2.25;;;;;14.83;42.98;100346.44;4996810;28;45520;-79
2022/05/31 03:48:01;;;;;;;;;3.75;2.00;;;;;14.84;42.61;100358.81;4977700;28;45437;-79
2022/05/31 03:50:27;;;;;;;;;1.00;0.00;;;;;14.81;43.38;100352.75;4985807;28;45524;-79
2022/05/31 03:52:52;;;;;;;;;5.00;3.00;;;;;14.81;45.26;100352.75;4999367;28;45772;-78
2022/05/31 03:55:18;;;;;;;;;5.75;3.00;;;;;14.79;45.12;100354.59;4997974;28;45321;-79
2022/05/31 03:57:46;;;;;;;;;5.00;5.00;;;;;14.77;46.38;100356.47;5015175;28;46292;-77
2022/05/31 04:00:12;;;;;;;;;6.50;6.50;;;;;14.77;46.86;100361.78;5010985;28;45447;-76
2022/05/31 04:02:37;;;;;;;;;4.00;4.00;;;;;14.76;46.70;100366.25;4996814;28;45429;-77
2022/05/31 04:05:03;;;;;;;;;5.00;5.00;;;;;14.75;47.39;100352.06;4997219;28;45375;-77
2022/05/31 04:07:28;;;;;;;;;6.75;6.75;;;;;14.75;47.72;100352.06;5012646;28;46615;-78
2022/05/31 04:09:53;;;;;;;;;3.00;3.00;;;;;14.74;47.28;100353.00;5011369;28;45573;-77
2022/05/31 04:12:19;;;;;;;;;5.00;5.00;;;;;14.67;48.16;100337.38;4995445;28;45487;-78
2022/05/31 04:14:44;;;;;;;;;5.00;4.25;;;;;14.72;47.61;100340.69;4997862;28;45312;-76
2022/05/31 04:17:09;;;;;;;;;5.50;5.50;;;;;14.71;47.36;100345.16;5012172;28;46284;-76
2022/05/31 04:19:35;;;;;;;;;6.00;6.00;;;;;14.74;48.27;100342.38;5018351;28;45463;-78
2022/05/31 04:22:00;;;;;;;;;7.00;6.25;;;;;14.69;47.76;100336.34;5017033;28;45480;-78
2022/05/31 04:24:26;;;;;;;;;5.00;4.25;;;;;14.72;47.58;100344.22;5016252;28;45470;-78
2022/05/31 04:26:51;;;;;;;;;6.00;3.75;;;;;14.75;47.73;100349.41;5004271;28;47540;-78
2022/05/31 04:29:17;;;;;;;;;4.00;4.00;;;;;14.77;47.86;100343.16;4995132;28;45541;-78
2022/05/31 04:31:43;;;;;;;;;6.25;4.75;;;;;14.75;47.26;100335.25;4996002;28;45515;-76
2022/05/31 04:34:08;;;;;;;;;3.75;3.75;;;;;14.81;47.17;100342.13;4996635;28;45399;-77
2022/05/31 04:36:34;;;;;;;;;5.00;5.00;;;;;14.79;46.62;100343.94;5003647;28;46037;-77
2022/05/31 04:39:01;;;;;;;;;3.75;3.75;;;;;14.83;46.63;100350.88;5016111;28;45455;-77
2022/05/31 04:41:28;;;;;;;;;8.25;5.75;;;;;14.87;46.50;100348.03;5015166;28;45502;-77
2022/05/31 04:43:57;;;;;;;;;7.00;2.75;;;;;14.93;46.25;100346.94;5015856;28;45393;-76
2022/05/31 04:46:24;;;;;;;;;4.00;2.75;;;;;15.01;46.47;100360.75;5016382;28;45378;-78
2022/05/31 04:48:52;;;;;;;;;5.75;4.00;;;;;15.05;46.21;100365.03;5017716;28;45322;-77
2022/05/31 04:51:18;;;;;;;;;6.00;5.00;;;;;15.12;45.96;100365.63;4996447;28;45523;-77
2022/05/31 04:53:43;;;;;;;;;4.75;4.50;;;;;15.18;45.61;100364.50;4995960;28;45584;-77
2022/05/31 04:56:13;;;;;;;;;3.25;3.25;;;;;15.27;45.66;100367.66;4998416;28;45629;-77
2022/05/31 04:58:39;;;;;;;;;4.25;4.25;;;;;15.33;45.26;100361.19;4995482;28;45340;-77
2022/05/31 05:01:08;;;;;;;;;4.25;4.25;;;;;15.46;45.21;100359.72;4997207;28;45551;-77
2022/05/31 05:03:34;;;;;;;;;2.75;1.75;;;;;15.52;44.70;100358.59;4996596;28;45523;-77
2022/05/31 05:06:01;;;;;;;;;4.00;4.00;;;;;15.57;44.84;100364.59;4998723;28;45525;-78
2022/05/31 05:08:27;;;;;;;;;5.00;5.00;;;;;15.62;44.88;100356.38;5015743;28;45363;-77
2022/05/31 05:10:52;;;;;;;;;4.50;4.50;;;;;15.91;44.32;100375.56;5014476;28;45309;-77
2022/05/31 05:13:18;;;;;;;;;5.00;5.00;;;;;16.34;44.55;100370.94;5014145;28;45576;-78
2022/05/31 05:15:43;;;;;;;;;8.50;6.50;;;;;16.62;44.61;100377.59;5018114;28;45324;-77
2022/05/31 05:18:09;;;;;;;;;5.50;4.25;;;;;16.94;44.92;100364.53;5017575;28;45412;-77
2022/05/31 05:20:38;;;;;;;;;4.00;4.00;;;;;17.26;44.65;100370.91;5015441;28;45552;-77
2022/05/31 05:23:04;;;;;;;;;9.00;6.00;;;;;17.35;44.11;100381.09;5015109;28;45557;-77
2022/05/31 05:25:30;;;;;;;;;6.75;4.50;;;;;17.39;43.65;100376.50;5015416;28;45599;-77
2022/05/31 05:27:56;;;;;;;;;5.00;5.00;;;;;17.38;43.76;100375.63;5000231;28;45486;-79
2022/05/31 05:30:39;;;;;;;;;7.50;6.50;;;;;17.41;43.63;100385.28;5015784;28;45320;-77
2022/05/31 05:33:05;;;;;;;;;7.00;5.50;;;;;17.45;43.70;100386.00;5035232;28;45438;-78
2022/05/31 05:35:31;;;;;;;;;9.50;6.75;;;;;17.50;43.66;100384.81;5017337;28;47517;-77
2022/05/31 05:37:56;;;;;;;;;6.00;6.00;;;;;17.54;43.51;100382.84;5019659;28;45763;-78
2022/05/31 05:40:21;;;;;;;;;4.00;4.00;;;;;17.80;43.26;100380.63;5016129;28;45656;-78
2022/05/31 05:42:47;;;;;;;;;8.25;5.50;;;;;18.18;42.62;100380.38;5015595;28;45344;-78
2022/05/31 05:45:12;;;;;;;;;8.00;5.75;;;;;18.69;41.69;100380.22;5018069;28;46331;-78
2022/05/31 05:47:38;;;;;;;;;6.75;6.75;;;;;19.38;40.63;100381.59;5016656;28;45435;-78
2022/05/31 05:50:06;;;;;;;;;7.00;5.75;;;;;19.93;39.94;100379.22;4998721;28;45408;-78
2022/05/31 05:52:32;;;;;;;;;7.50;6.00;;;;;20.27;38.35;100383.31;4995557;28;45461;-77
2022/05/31 05:54:58;;;;;;;;;6.25;6.25;;;;;20.40;38.43;100391.44;5010147;28;46665;-78
2022/05/31 05:57:23;;;;;;;;;8.00;7.75;;;;;20.40;38.09;100380.72;5013632;28;45501;-79
2022/05/31 05:59:48;;;;;;;;;8.00;7.00;;;;;20.29;38.07;100393.97;5004369;28;45401;-78
2022/05/31 06:02:24;;;;;;;;;7.25;7.25;;;;;20.16;38.20;100397.44;4999924;28;45344;-81
2022/05/31 06:04:58;;;;;;;;;6.00;5.50;;;;;20.20;38.49;100403.44;5008091;28;45463;-79
2022/05/31 06:07:32;;;;;;;;;8.50;6.00;;;;;20.10;38.23;100394.25;4997793;28;45534;-77
2022/05/31 06:10:11;;;;;;;;;7.75;6.75;;;;;20.00;38.83;100393.97;5009143;28;45431;-78
2022/05/31 06:12:42;;;;;;;;;7.00;7.00;;;;;19.83;38.38;100395.00;5015122;28;45623;-79
2022/05/31 06:15:14;;;;;;;;;8.25;8.00;;;;;19.77;38.74;100400.69;5020163;28;46451;-77
2022/05/31 06:17:43;;;;;;;;;7.00;7.00;;;;;19.66;38.64;100396.00;5023234;28;45531;-78
2022/05/31 06:20:10;;;;;;;;;10.50;8.00;;;;;19.45;38.86;100395.47;5025707;28;45344;-78
2022/05/31 06:22:41;;;;;;;;;7.25;7.00;;;;;19.34;39.07;100405.03;5013809;28;45698;-77
2022/05/31 06:25:08;;;;;;;;;9.50;6.75;;;;;19.34;39.83;100405.03;5015092;28;45499;-78
2022/05/31 06:27:34;;;;;;;;;7.25;7.25;;;;;19.37;39.49;100392.41;5013762;28;45489;-77
2022/05/31 06:29:59;;;;;;;;;9.50;9.00;;;;;19.46;39.31;100399.88;5013444;28;45465;-79
2022/05/31 06:32:25;;;;;;;;;7.50;6.00;;;;;19.54;39.13;100405.66;5013784;28;45541;-78
2022/05/31 06:34:50;;;;;;;;;5.75;5.75;;;;;19.73;38.88;100408.06;5022087;28;46431;-78
2022/05/31 06:37:16;;;;;;;;;7.00;7.00;;;;;19.95;38.20;100401.41;5014225;28;45527;-78
2022/05/31 06:39:44;;;;;;;;;7.00;7.00;;;;;20.22;37.97;100409.56;5019592;28;45411;-79
2022/05/31 06:42:10;;;;;;;;;8.00;7.00;;;;;20.97;36.88;100406.59;5013601;28;45598;-77
2022/05/31 06:44:38;;;;;;;;;7.25;7.25;;;;;21.57;35.91;100407.94;5017380;28;45457;-78
2022/05/31 06:47:04;;;;;;;;;9.25;7.25;;;;;21.95;34.58;100400.88;5007452;28;45500;-77
2022/05/31 06:49:31;;;;;;;;;10.75;8.00;;;;;22.34;34.11;100401.72;5006403;28;45500;-76
2022/05/31 06:57:34;;;;;;;;;6.00;6.00;;;;;22.33;32.86;100400.88;5004688;28;45408;-77
2022/05/31 06:59:59;;;;;;;;;6.00;6.00;;;;;22.17;33.47;100403.75;5008668;28;45597;-78
2022/05/31 07:02:27;;;;;;;;;8.00;6.75;;;;;22.10;33.81;100402.47;5020740;28;45561;-77
2022/05/31 07:04:53;;;;;;;;;6.00;6.00;;;;;22.02;34.08;100391.41;5031553;28;45505;-78
2022/05/31 07:07:18;;;;;;;;;6.75;6.50;;;;;22.06;34.41;100409.06;5008735;28;45442;-78
2022/05/31 07:09:44;;;;;;;;;6.00;6.00;;;;;21.96;34.38;100408.81;5028069;28;45419;-78
2022/05/31 07:12:09;;;;;;;;;8.50;8.25;;;;;21.89;33.92;100404.84;5026714;28;45331;-79
2022/05/31 07:14:35;;;;;;;;;9.00;7.00;;;;;21.71;34.10;100407.00;5022965;28;45343;-78
2022/05/31 07:17:00;;;;;;;;;7.25;6.00;;;;;21.67;34.04;100401.91;5014956;28;48980;-78
2022/05/31 07:19:25;;;;;;;;;7.50;6.00;;;;;21.63;33.97;100412.03;5025047;28;45411;-77
2022/05/31 07:21:52;;;;;;;;;7.00;6.25;;;;;21.53;34.05;100408.25;5015700;28;45725;-78
2022/05/31 07:24:17;;;;;;;;;4.25;4.25;;;;;21.55;34.51;100396.44;5023215;28;46488;-78
2022/05/31 07:26:43;;;;;;;;;7.25;6.25;;;;;21.66;34.72;100417.19;5020479;28;45411;-77
2022/05/31 07:29:09;;;;;;;;;7.50;7.00;;;;;21.61;34.70;100412.16;5017681;28;45610;-77
2022/05/31 07:31:36;;;;;;;;;6.00;6.00;;;;;21.45;34.51;100409.63;5021819;28;45509;-77
2022/05/31 07:34:01;;;;;;;;;7.00;5.00;;;;;21.34;34.53;100414.84;5033298;28;45529;-78
2022/05/31 07:36:27;;;;;;;;;9.00;6.75;;;;;21.15;34.32;100417.06;5009016;28;45438;-77
2022/05/31 07:38:53;;;;;;;;;6.00;5.25;;;;;21.05;34.36;100417.66;5024004;28;45392;-78
2022/05/31 07:41:19;;;;;;;;;6.25;6.25;;;;;20.92;34.82;100406.88;5039431;28;45358;-77
2022/05/31 07:43:44;;;;;;;;;6.75;5.75;;;;;20.95;34.12;100416.53;5013965;28;47135;-79
2022/05/31 07:46:14;;;;;;;;;5.00;5.00;;;;;20.92;34.12;100416.75;5010644;28;45473;-78
2022/05/31 07:48:40;;;;;;;;;3.75;3.75;;;;;20.93;34.13;100423.84;5022253;28;45442;-78
2022/05/31 07:51:06;;;;;;;;;7.00;5.00;;;;;20.96;34.34;100422.81;5023795;28;45449;-77
2022/05/31 07:53:33;;;;;;;;;4.75;4.75;;;;;20.97;34.88;100424.50;5024439;28;46294;-77
2022/05/31 07:56:00;;;;;;;;;5.25;4.00;;;;;21.03;34.57;100430.34;5024152;28;45481;-77
2022/05/31 07:58:33;;;;;;;;;4.00;4.00;;;;;21.08;33.89;100427.34;5011966;28;45336;-78
2022/05/31 08:01:05;;;;;;;;;6.00;5.00;;;;;21.21;34.13;100427.38;5011826;28;45490;-77
2022/05/31 08:03:32;;;;;;;;;6.50;6.50;;;;;21.34;33.80;100422.06;5021886;28;45491;-78
2022/05/31 08:05:57;;;;;;;;;5.25;4.00;;;;;21.40;32.81;100416.28;5021017;28;45425;-77
2022/05/31 08:08:23;;;;;;;;;6.75;5.00;;;;;21.70;33.24;100425.94;5012086;28;46002;-78
2022/05/31 08:10:48;;;;;;;;;3.75;3.75;;;;;21.97;32.15;100425.81;5030703;28;45697;-79
2022/05/31 08:13:14;;;;;;;;;3.00;3.00;;;;;22.13;32.73;100426.47;5015760;28;46184;-77
2022/05/31 08:15:40;;;;;;;;;5.00;3.50;;;;;22.52;32.66;100421.06;5021794;28;45524;-78
2022/05/31 08:18:05;;;;;;;;;5.00;4.00;;;;;23.49;30.61;100413.88;5030174;28;45440;-77
2022/05/31 08:20:31;;;;;;;;;5.75;5.75;;;;;24.38;30.03;100414.13;5018996;28;45407;-78
2022/05/31 08:22:56;;;;;;;;;3.00;3.00;;;;;24.47;29.62;100416.06;5024889;28;46007;-78
2022/05/31 08:25:22;;;;;;;;;4.00;4.00;;;;;25.10;29.32;100415.50;5033413;28;45638;-77
2022/05/31 08:27:47;;;;;;;;;6.50;5.50;;;;;25.11;28.63;100411.81;5023315;28;45435;-77
2022/05/31 08:30:13;;;;;;;;;5.00;5.00;;;;;25.28;28.85;100412.22;5020646;28;45631;-77
2022/05/31 08:32:38;;;;;;;;;5.50;5.50;;;;;26.02;27.66;100405.94;5022518;28;46344;-78
2022/05/31 08:35:07;;;;;;;;;4.00;4.00;;;;;26.50;27.73;100407.13;5026496;28;45608;-77
2022/05/31 08:37:33;;;;;;;;;6.50;5.25;;;;;27.32;26.97;100403.31;5024613;28;45357;-77
2022/05/31 08:39:59;;;;;;;;;4.75;4.00;;;;;27.84;25.31;100409.19;5021919;28;45377;-79
2022/05/31 08:42:48;;;;;;;;;3.25;3.25;;;;;28.62;24.12;100408.09;5019531;28;45465;-78
2022/05/31 08:45:28;;;;;;;;;5.50;5.50;;;;;28.55;24.33;100401.53;5015856;28;45430;-78
2022/05/31 08:48:08;;;;;;;;;3.50;3.00;;;;;29.18;24.06;100406.13;5019803;28;45492;-77
2022/05/31 08:53:42;;;;;;;;;5.00;3.25;;;;;30.27;23.92;100402.16;5020226;28;45806;-78
2022/05/31 08:59:14;;;;;;;;;3.00;3.00;;;;;31.44;21.48;100396.00;5016297;28;45467;-78
2022/05/31 09:01:53;;;;;;;;;1.25;1.25;;;;;31.83;20.34;100389.84;5016115;28;45399;-79
2022/05/31 09:04:28;;;;;;;;;2.50;2.50;;;;;31.97;19.09;100400.03;5028844;28;46188;-77
2022/05/31 09:07:35;;;;;;;;;5.00;3.50;;;;;32.14;20.02;100389.09;5025779;28;45425;-78
2022/05/31 09:10:19;;;;;;;;;3.00;3.00;;;;;32.04;19.52;100395.59;5012439;28;45550;-79
2022/05/31 09:12:55;;;;;;;;;2.25;2.25;;;;;32.36;20.12;100404.72;5010266;28;45419;-78
2022/05/31 09:15:33;;;;;;;;;4.75;4.75;;;;;31.83;19.17;100398.03;5024048;28;46255;-79
2022/05/31 09:18:20;;;;;;;;;2.25;2.25;;;;;31.68;19.89;100401.47;5027593;28;45473;-79
2022/05/31 09:20:53;;;;;;;;;4.75;3.75;;;;;32.27;20.72;100399.47;5016253;28;45396;-78
2022/05/31 09:23:21;;;;;;;;;2.75;2.75;;;;;32.78;19.65;100401.81;5014328;28;45379;-78
2022/05/31 09:25:56;;;;;;;;;7.25;4.25;;;;;33.07;18.76;100401.09;5023429;28;47400;-78
2022/05/31 09:28:34;;;;;;;;;2.00;2.00;;;;;33.31;18.43;100402.81;5020748;28;45449;-78
2022/05/31 09:31:08;;;;;;;;;1.75;1.75;;;;;33.19;18.53;100382.38;5023885;28;45728;-78
2022/05/31 09:33:45;;;;;;;;;3.75;2.50;;;;;33.65;18.29;100402.34;5018217;28;45494;-79
2022/05/31 09:36:30;;;;;;;;;1.25;1.25;;;;;33.54;17.10;100412.91;5016429;28;46166;-76
2022/05/31 09:39:20;;;;;;;;;3.00;1.00;;;;;33.83;17.87;100406.69;5014421;28;45471;-76
2022/05/31 09:42:03;;;;;;;;;1.75;1.75;;;;;34.07;16.59;100397.31;5017495;28;45432;-77
2022/05/31 09:44:33;;;;;;;;;2.00;2.00;;;;;33.94;16.91;100392.50;5014997;28;45475;-77
2022/05/31 09:47:22;;;;;;;;;1.25;1.25;;;;;33.50;17.91;100401.47;5024509;28;46172;-77
2022/05/31 09:49:50;;;;;;;;;2.00;2.00;;;;;32.95;17.96;100395.22;5026900;28;45614;-76
2022/05/31 09:52:22;;;;;;;;;3.00;1.75;;;;;33.15;18.28;100402.91;5014744;28;45402;-76
2022/05/31 09:58:19;;;;;;;;;1.50;1.50;;;;;33.17;18.48;100390.75;5020238;28;45537;-77
2022/05/31 10:01:02;;;;;;;;;2.00;2.00;;;;;32.29;18.70;100397.41;5016656;28;45507;-75
2022/05/31 10:03:33;;;;;;;;;1.00;1.00;;;;;31.42;19.16;100381.69;5024670;28;45472;-78
2022/05/31 10:06:12;;;;;;;;;2.75;2.75;;;;;30.73;19.91;100396.41;5027605;28;45492;-76
2022/05/31 10:08:37;;;;;;;;;2.25;2.00;;;;;30.11;20.28;100396.66;5018761;28;46264;-77
2022/05/31 10:11:15;;;;;;;;;2.00;2.00;;;;;29.57;19.75;100397.63;5025765;28;45655;-77
2022/05/31 10:13:42;;;;;;;;;2.00;2.00;;;;;29.06;20.52;100399.19;5016123;28;45503;-79
2022/05/31 10:16:23;;;;;;;;;3.00;3.00;;;;;28.57;21.36;100399.50;5011905;28;45518;-80
2022/05/31 10:18:57;;;;;;;;;3.00;3.00;;;;;28.19;21.94;100398.69;5012566;28;45430;-77
2022/05/31 10:21:32;;;;;;;;;2.25;2.00;;;;;27.92;21.19;100403.06;5015721;28;45419;-79
2022/05/31 10:24:26;;;;;;;;;2.00;2.00;;;;;27.68;21.28;100403.56;5011416;28;45570;-78
2022/05/31 10:27:06;;;;;;;;;2.00;2.00;;;;;27.35;21.29;100404.88;5016788;28;45519;-78
2022/05/31 10:29:40;;;;;;;;;0.00;0.00;;;;;26.94;22.06;100400.41;5012604;28;46323;-78
2022/05/31 10:32:27;;;;;;;;;12.00;11.00;;;;;26.63;22.88;100372.47;5011589;28;45402;-77
2022/05/31 10:35:10;;;;;;;;;2.00;2.00;;;;;26.59;23.58;100403.59;5015611;28;45481;-79
2022/05/31 10:37:37;;;;;;;;;1.00;1.00;;;;;26.40;23.59;100399.84;5013325;28;45437;-79
2022/05/31 10:40:07;;;;;;;;;2.50;1.50;;;;;26.23;23.25;100403.19;5020686;28;45444;-80
2022/05/31 10:42:37;;;;;;;;;2.75;2.75;;;;;25.84;23.61;100395.72;5024737;28;45383;-80
2022/05/31 10:45:08;;;;;;;;;2.00;2.00;;;;;25.63;24.28;100401.13;5033169;28;45560;-80
2022/05/31 10:47:34;;;;;;;;;1.00;1.00;;;;;25.81;24.59;100406.81;5029860;28;45351;-79
2022/05/31 10:50:01;;;;;;;;;4.00;3.50;;;;;26.55;23.84;100392.16;5030212;28;45426;-79
2022/05/31 10:52:46;;;;;;;;;3.00;3.00;;;;;27.47;22.91;100398.28;5019535;28;45398;-80
2022/05/31 10:55:37;;;;;;;;;2.00;2.00;;;;;27.89;22.72;100405.19;5016113;28;45498;-79
2022/05/31 10:58:11;;;;;;;;;3.75;3.00;;;;;27.84;21.69;100395.63;5025122;28;45519;-77
2022/05/31 11:00:50;;;;;;;;;1.00;1.00;;;;;27.58;21.53;100408.97;5023224;28;46233;-78
2022/05/31 11:03:24;;;;;;;;;3.00;3.00;;;;;27.48;21.89;100403.56;5024334;28;45370;-79
2022/05/31 11:06:14;;;;;;;;;4.50;3.50;;;;;27.41;22.13;100407.84;5020255;28;45427;-79
2022/05/31 11:12:04;;;;;;;;;1.50;1.50;;;;;27.55;22.13;100411.13;5022577;28;46010;-77
2022/05/31 11:14:48;;;;;;;;;3.00;3.00;;;;;28.27;22.30;100414.25;5025822;28;45323;-78
2022/05/31 11:17:35;;;;;;;;;2.50;2.50;;;;;28.41;21.33;100408.31;5016574;28;45526;-79
2022/05/31 11:20:19;;;;;;;;;1.75;1.75;;;;;28.40;21.83;100408.47;5032134;28;45427;-77
2022/05/31 11:23:03;;;;;;;;;2.25;2.25;;;;;28.09;21.83;100404.19;5027779;28;46348;-79
2022/05/31 11:25:43;;;;;;;;;1.00;1.00;;;;;28.43;22.33;100398.16;5011601;28;45395;-78
2022/05/31 11:28:18;;;;;;;;;2.00;2.00;;;;;28.78;21.55;100401.13;5019854;28;45487;-77
2022/05/31 11:31:07;;;;;;;;;2.50;2.50;;;;;28.66;21.35;100414.06;5032515;28;45390;-78
2022/05/31 11:33:51;;;;;;;;;2.25;1.00;;;;;28.17;21.58;100407.00;5032690;28;46263;-78
2022/05/31 11:36:46;;;;;;;;;2.75;2.75;;;;;27.83;20.94;100412.94;5020613;28;45440;-78
2022/05/31 11:39:21;;;;;;;;;2.00;2.00;;;;;27.48;21.28;100411.72;5026847;28;45497;-79
2022/05/31 11:42:24;;;;;;;;;2.75;2.75;;;;;27.27;22.50;100413.66;5011694;28;45453;-78
2022/05/31 11:44:58;;;;;;;;;3.00;3.00;;;;;27.12;22.39;100419.53;5020996;28;45535;-79
2022/05/31 11:47:26;;;;;;;;;3.25;3.25;;;;;27.01;22.67;100419.69;5016833;28;45472;-81
2022/05/31 11:50:44;;;;;;;;;3.50;3.50;;;;;26.83;23.28;100410.50;5032107;28;45560;-78
2022/05/31 11:53:43;;;;;;;;;2.00;2.00;;;;;26.53;23.25;100414.97;4993454;28;45357;-80
2022/05/31 11:56:34;;;;;;;;;2.25;2.25;;;;;26.25;24.46;100414.72;5021217;28;45361;-78
2022/05/31 11:59:21;;;;;;;;;2.50;2.00;;;;;26.00;24.11;100424.16;5024018;28;45503;-78
2022/05/31 12:02:22;;;;;;;;;5.50;4.00;;;;;25.87;24.67;100416.22;5026133;28;45835;-78
2022/05/31 12:04:56;;;;;;;;;4.50;3.50;;;;;25.71;25.06;100422.09;5031019;28;45592;-79